Time;durP1;ratioP1;P1;durP2;ratioP2;P2;SDS_P1;SDS_P2;PMS_P1;PMS_P2;Temp;Humidity;BMP_temperature;BMP_pressure;BME280_temperature;BME280_humidity;BME280_pressure;Samples;Min_cycle;Max_cycle;Signal;HPM_P1;HPM_P2
2022/04/25 00:00:00;;;;;;;23.65;15.48;;;;;;;8.36;78.31;99476.45;1774069;80;21025;-73
2022/04/25 00:02:26;;;;;;;25.20;15.98;;;;;;;8.33;78.29;99475.48;1754442;80;20997;-73
2022/04/25 00:04:52;;;;;;;32.48;21.70;;;;;;;8.30;78.26;99484.31;1760052;80;21046;-73
2022/04/25 00:07:18;;;;;;;21.10;14.60;;;;;;;8.25;78.24;99479.49;1748164;80;21064;-73
2022/04/25 00:09:45;;;;;;;16.55;11.25;;;;;;;8.22;78.24;99475.87;1744102;80;21164;-72
2022/04/25 00:12:11;;;;;;;18.73;11.55;;;;;;;8.19;78.24;99474.90;1737619;80;20995;-73
2022/04/25 00:14:37;;;;;;;20.60;12.95;;;;;;;8.17;78.23;99478.22;1759276;81;21529;-73
2022/04/25 00:17:04;;;;;;;20.45;14.55;;;;;;;8.15;78.21;99481.56;1754860;80;21965;-73
2022/04/25 00:19:30;;;;;;;20.70;13.18;;;;;;;8.13;78.21;99483.55;1736512;81;21070;-73
2022/04/25 00:21:56;;;;;;;19.40;13.60;;;;;;;8.12;78.18;99479.27;1747594;81;21559;-72
2022/04/25 00:24:22;;;;;;;16.82;12.43;;;;;;;8.11;78.18;99477.61;1752562;81;21577;-73
2022/04/25 00:26:48;;;;;;;18.48;11.63;;;;;;;8.11;78.14;99485.57;1763062;81;20918;-73
2022/04/25 00:29:14;;;;;;;18.50;11.78;;;;;;;8.11;78.12;99485.57;1745294;80;21058;-72
2022/04/25 00:31:40;;;;;;;21.07;12.70;;;;;;;8.09;78.09;99488.09;1759178;81;20991;-72
2022/04/25 00:34:06;;;;;;;20.80;14.43;;;;;;;8.08;78.06;99487.75;1734703;81;21211;-72
2022/04/25 00:36:32;;;;;;;20.60;14.28;;;;;;;8.05;78.04;99487.61;1742096;81;21557;-72
2022/04/25 00:38:59;;;;;;;15.53;10.80;;;;;;;8.03;78.00;99488.27;1734348;81;21062;-72
2022/04/25 00:41:25;;;;;;;16.07;11.33;;;;;;;8.00;77.99;99488.63;1740948;80;21124;-72
2022/04/25 00:43:57;;;;;;;12.70;9.75;;;;;;;7.96;77.97;99485.50;1760431;81;21049;-73
2022/04/25 00:46:26;;;;;;;15.35;8.93;;;;;;;7.94;77.95;99485.36;1737495;81;21055;-72
2022/04/25 00:48:52;;;;;;;13.80;9.43;;;;;;;7.92;77.93;99482.03;1762750;81;21005;-72
2022/04/25 00:51:18;;;;;;;15.45;9.88;;;;;;;7.90;77.92;99481.39;1736083;81;21374;-72
2022/04/25 00:53:45;;;;;;;19.73;11.28;;;;;;;7.87;77.90;99479.09;1750002;81;21861;-72
2022/04/25 00:56:16;;;;;;;18.10;11.78;;;;;;;7.85;77.86;99484.56;1765304;80;21024;-72
2022/04/25 00:58:44;;;;;;;21.70;11.55;;;;;;;7.84;77.84;99478.13;1739508;81;21170;-72
2022/04/25 01:01:11;;;;;;;12.65;9.63;;;;;;;7.83;77.82;99487.08;1735967;81;20991;-72
2022/04/25 01:03:37;;;;;;;14.07;10.32;;;;;;;7.82;77.80;99486.74;1699130;81;21049;-72
2022/04/25 01:06:03;;;;;;;13.88;9.23;;;;;;;7.80;77.74;99482.13;1754568;81;20951;-72
2022/04/25 01:08:29;;;;;;;11.08;8.48;;;;;;;7.77;77.71;99483.30;1753743;81;21083;-72
2022/04/25 01:10:55;;;;;;;20.68;9.45;;;;;;;7.73;77.73;99485.14;1766174;80;21110;-72
2022/04/25 01:13:21;;;;;;;13.58;9.43;;;;;;;7.70;77.71;99487.66;1774453;79;20962;-72
2022/04/25 01:15:47;;;;;;;12.33;10.35;;;;;;;7.69;77.72;99483.84;1757397;81;21034;-73
2022/04/25 01:18:13;;;;;;;17.98;11.65;;;;;;;7.67;77.70;99492.48;1736754;81;20978;-72
2022/04/25 01:20:39;;;;;;;18.62;11.30;;;;;;;7.63;77.68;99484.05;1745849;81;21151;-72
2022/04/25 01:28:42;;;;;;;10.88;8.10;;;;;;;7.57;77.64;99484.71;1738860;81;21069;-72
2022/04/25 01:31:08;;;;;;;15.00;8.48;;;;;;;7.57;77.63;99493.17;1759804;81;21005;-72
2022/04/25 01:33:34;;;;;;;12.10;8.40;;;;;;;7.53;77.63;99486.88;1730621;81;21614;-72
2022/04/25 01:36:02;;;;;;;11.68;7.87;;;;;;;7.51;77.62;99486.24;1742242;81;22021;-72
2022/04/25 01:38:28;;;;;;;15.53;9.15;;;;;;;7.52;77.61;99493.21;1765190;81;21068;-72
2022/04/25 01:40:56;;;;;;;19.77;9.25;;;;;;;7.48;77.60;99487.92;1745887;80;21529;-72
2022/04/25 01:43:21;;;;;;;13.20;8.90;;;;;;;7.50;77.60;99495.19;1764563;80;21522;-72
2022/04/25 01:45:48;;;;;;;12.25;9.55;;;;;;;7.49;77.59;99490.87;1742206;81;21084;-73
2022/04/25 01:48:14;;;;;;;11.00;8.38;;;;;;;7.49;77.59;99497.51;1734511;81;21832;-72
2022/04/25 01:50:40;;;;;;;11.97;7.90;;;;;;;7.49;77.57;99490.08;1765400;80;20982;-72
2022/04/25 01:53:06;;;;;;;15.23;9.03;;;;;;;7.47;77.57;99493.38;1737242;80;21054;-72
2022/04/25 01:55:32;;;;;;;11.48;7.78;;;;;;;7.45;77.59;99494.90;1747087;81;21072;-72
2022/04/25 01:57:58;;;;;;;12.28;8.05;;;;;;;7.44;77.58;99495.89;1736721;81;21019;-72
2022/04/25 02:00:24;;;;;;;14.45;8.20;;;;;;;7.29;77.58;99477.70;1744197;81;21012;-72
2022/04/25 02:02:50;;;;;;;19.32;8.10;;;;;;;7.29;77.58;99477.70;1763018;81;21002;-72
2022/04/25 02:05:16;;;;;;;13.22;8.55;;;;;;;7.38;77.63;99499.23;1741362;81;20912;-72
2022/04/25 02:07:42;;;;;;;12.50;9.10;;;;;;;7.35;77.66;99502.20;1768406;80;21072;-72
2022/04/25 02:10:09;;;;;;;13.95;9.43;;;;;;;7.33;77.66;99506.03;1775493;80;20909;-72
2022/04/25 02:12:35;;;;;;;19.52;10.95;;;;;;;7.32;77.67;99502.55;1736855;81;21124;-73
2022/04/25 02:15:01;;;;;;;14.10;9.38;;;;;;;7.31;77.70;99504.90;1734231;82;21070;-72
2022/04/25 02:17:27;;;;;;;12.78;8.53;;;;;;;7.29;77.66;99504.22;1730567;83;21114;-72
2022/04/25 02:19:53;;;;;;;12.80;8.05;;;;;;;7.30;77.68;99509.03;1745684;81;21002;-72
2022/04/25 02:22:19;;;;;;;11.33;7.67;;;;;;;7.29;77.66;99505.55;1730522;83;20916;-72
2022/04/25 02:24:45;;;;;;;11.50;8.68;;;;;;;7.28;77.66;99506.53;1741716;82;22211;-72
2022/04/25 02:27:11;;;;;;;11.30;7.50;;;;;;;7.28;77.67;99505.21;1741514;81;20955;-72
2022/04/25 02:29:43;;;;;;;17.45;7.60;;;;;;;7.30;77.67;99510.36;1741732;82;20883;-72
2022/04/25 02:32:12;;;;;;;11.38;7.50;;;;;;;7.29;77.66;99511.34;1741604;82;21046;-72
2022/04/25 02:34:40;;;;;;;11.25;7.20;;;;;;;7.29;77.66;99512.18;1745504;81;21117;-72
2022/04/25 02:37:06;;;;;;;16.05;7.25;;;;;;;7.29;77.66;99510.02;1745683;82;21210;-72
2022/04/25 02:39:32;;;;;;;10.72;6.62;;;;;;;7.26;77.64;99508.55;1736318;82;20959;-72
2022/04/25 02:41:58;;;;;;;11.05;7.05;;;;;;;7.26;77.66;99509.04;1761278;81;20974;-72
2022/04/25 02:44:24;;;;;;;14.83;7.47;;;;;;;7.24;77.66;99513.20;1744808;82;21022;-72
2022/04/25 02:46:50;;;;;;;12.98;6.83;;;;;;;7.24;77.67;99510.55;1742405;82;21010;-72
2022/04/25 02:49:16;;;;;;;12.90;8.23;;;;;;;7.23;77.67;99514.20;1749873;81;21135;-73
2022/04/25 02:51:43;;;;;;;11.97;6.75;;;;;;;7.21;77.66;99513.55;1738069;82;20946;-72
2022/04/25 02:54:09;;;;;;;11.65;7.10;;;;;;;7.20;77.68;99513.70;1738090;82;21062;-73
2022/04/25 02:56:35;;;;;;;10.32;5.95;;;;;;;7.18;77.70;99513.06;1738219;82;21002;-72
2022/04/25 02:59:01;;;;;;;11.03;7.55;;;;;;;7.16;77.70;99508.41;1734414;82;21668;-73
2022/04/25 03:01:27;;;;;;;9.13;6.33;;;;;;;7.14;77.71;99509.92;1745955;82;21091;-73
2022/04/25 03:03:54;;;;;;;13.60;7.33;;;;;;;7.12;77.73;99513.22;1736942;81;21034;-73
2022/04/25 03:06:19;;;;;;;9.30;6.35;;;;;;;7.10;77.75;99516.56;1737660;82;21066;-72
2022/04/25 03:08:46;;;;;;;12.78;7.60;;;;;;;7.09;77.75;99512.24;1745818;81;21101;-73
2022/04/25 03:11:12;;;;;;;8.40;6.65;;;;;;;7.08;77.76;99515.88;1730582;81;21563;-72
2022/04/25 03:13:41;;;;;;;9.38;6.08;;;;;;;7.06;77.77;99517.89;1756811;81;21828;-72
2022/04/25 03:16:07;;;;;;;7.83;6.55;;;;;;;7.04;77.77;99517.21;1757200;81;21057;-72
2022/04/25 03:18:33;;;;;;;8.40;6.97;;;;;;;7.02;77.79;99521.87;1755797;80;20978;-72
2022/04/25 03:21:00;;;;;;;9.08;6.70;;;;;;;7.02;77.79;99527.17;1746661;80;20955;-72
2022/04/25 03:23:26;;;;;;;10.08;6.58;;;;;;;6.98;77.81;99525.84;1744805;80;21021;-72
2022/04/25 03:25:52;;;;;;;15.20;7.00;;;;;;;6.97;77.83;99530.80;1745392;80;21144;-72
2022/04/25 03:28:18;;;;;;;13.30;8.38;;;;;;;6.96;77.83;99530.50;1743009;80;21494;-72
2022/04/25 03:30:44;;;;;;;11.15;7.67;;;;;;;6.93;77.85;99528.19;1742069;81;21006;-73
2022/04/25 03:33:11;;;;;;;12.53;7.58;;;;;;;6.93;77.84;99532.16;1786128;80;20984;-72
2022/04/25 03:35:40;;;;;;;10.68;6.90;;;;;;;6.89;77.85;99530.84;1786862;79;21047;-72
2022/04/25 03:38:07;;;;;;;11.90;8.23;;;;;;;6.89;77.86;99532.16;1774447;80;21157;-72
2022/04/25 03:40:36;;;;;;;12.13;8.03;;;;;;;6.86;77.87;99538.61;1786241;79;20980;-72
2022/04/25 03:43:07;;;;;;;16.37;9.73;;;;;;;6.82;77.54;99537.80;1786896;79;20996;-72
2022/04/25 03:45:31;;;;;;;14.53;8.63;;;;;;;6.82;77.54;99537.80;1762436;80;21419;-72
2022/04/25 03:47:57;;;;;;;12.70;9.30;;;;;;;6.79;77.91;99544.77;1764664;80;21094;-73
2022/04/25 03:50:23;;;;;;;15.93;9.00;;;;;;;6.75;77.94;99538.97;1781417;79;21196;-72
2022/04/25 03:52:49;;;;;;;13.32;8.70;;;;;;;6.71;77.96;99539.46;1775142;80;20888;-72
2022/04/25 03:58:02;;;;;;;11.30;8.30;;;;;;;6.61;78.03;99550.73;1745684;80;21538;-72
2022/04/25 04:00:28;;;;;;;15.90;9.00;;;;;;;6.54;78.07;99552.69;1725655;83;21021;-72
2022/04/25 04:02:54;;;;;;;14.95;8.88;;;;;;;6.53;78.10;99556.35;1742400;82;21768;-73
2022/04/25 04:05:20;;;;;;;12.33;7.92;;;;;;;6.50;78.12;99554.03;1713124;82;21064;-72
2022/04/25 04:07:48;;;;;;;12.60;8.73;;;;;;;6.45;78.13;99564.28;1758996;80;20999;-73
2022/04/25 04:10:15;;;;;;;12.40;8.98;;;;;;;6.43;78.17;99563.63;1770603;80;21559;-72
2022/04/25 04:12:41;;;;;;;11.50;9.40;;;;;;;6.40;78.20;99566.58;1704859;83;21101;-72
2022/04/25 04:15:08;;;;;;;16.17;9.10;;;;;;;6.35;78.21;99568.91;1728063;83;21804;-73
2022/04/25 04:17:34;;;;;;;15.03;9.13;;;;;;;6.32;78.26;99573.70;1730056;81;21605;-73
2022/04/25 04:20:02;;;;;;;22.27;10.05;;;;;;;6.26;78.31;99580.45;1729066;83;21005;-73
2022/04/25 04:22:31;;;;;;;16.65;9.80;;;;;;;6.23;78.37;99581.28;1729148;83;21509;-72
2022/04/25 04:25:05;;;;;;;13.30;9.08;;;;;;;6.23;78.42;99580.78;1729339;83;21074;-73
2022/04/25 04:27:32;;;;;;;20.82;9.98;;;;;;;6.23;78.45;99584.76;1755573;81;21434;-73
2022/04/25 04:29:59;;;;;;;14.07;9.15;;;;;;;6.21;78.47;99586.75;1768062;81;21002;-73
2022/04/25 04:32:29;;;;;;;16.67;9.50;;;;;;;6.19;78.51;99595.36;1767609;81;21715;-73
2022/04/25 04:34:53;;;;;;;16.05;10.32;;;;;;;6.17;78.55;99596.00;1767662;81;21037;-73
2022/04/25 04:37:19;;;;;;;18.92;10.68;;;;;;;6.15;78.60;99599.32;1745628;81;21047;-73
2022/04/25 04:39:45;;;;;;;15.70;10.43;;;;;;;6.14;78.62;99606.08;1729151;81;21158;-73
2022/04/25 04:42:11;;;;;;;16.65;10.20;;;;;;;6.11;78.66;99613.86;1729023;83;20990;-73
2022/04/25 04:44:37;;;;;;;15.58;9.90;;;;;;;6.11;78.72;99613.86;1729127;83;20937;-73
2022/04/25 04:47:04;;;;;;;18.70;10.35;;;;;;;6.12;78.76;99624.79;1731688;81;21557;-73
2022/04/25 04:49:30;;;;;;;13.45;9.45;;;;;;;6.09;78.81;99623.77;1728724;83;21058;-73
2022/04/25 04:51:56;;;;;;;13.45;9.50;;;;;;;6.05;78.88;99625.09;1729353;83;21113;-73
2022/04/25 04:54:22;;;;;;;15.60;9.80;;;;;;;6.03;78.95;99622.59;1729089;83;20962;-73
2022/04/25 04:56:48;;;;;;;13.72;9.25;;;;;;;6.02;78.99;99628.03;1745367;81;20974;-73
2022/04/25 04:59:14;;;;;;;18.77;9.70;;;;;;;6.02;79.05;99630.68;1768103;81;21017;-73
2022/04/25 05:01:40;;;;;;;17.55;10.68;;;;;;;6.02;79.11;99630.68;1739093;81;21513;-73
2022/04/25 05:04:06;;;;;;;21.33;10.82;;;;;;;5.98;79.13;99638.11;1729172;83;21731;-73
2022/04/25 05:06:33;;;;;;;17.17;10.72;;;;;;;5.95;79.18;99634.47;1728934;83;21049;-73
2022/04/25 05:08:59;;;;;;;17.10;10.98;;;;;;;5.95;79.23;99645.53;1728947;83;21066;-73
2022/04/25 05:11:29;;;;;;;15.78;10.23;;;;;;;5.94;79.27;99643.91;1728867;83;20890;-73
2022/04/25 05:13:53;;;;;;;14.78;9.88;;;;;;;5.91;79.33;99642.90;1758889;79;21561;-73
2022/04/25 05:16:19;;;;;;;14.13;10.38;;;;;;;5.90;79.40;99647.36;1759424;81;22171;-73
2022/04/25 05:18:46;;;;;;;16.23;10.50;;;;;;;5.90;79.43;99653.97;1759247;81;21899;-73
2022/04/25 05:21:13;;;;;;;13.50;10.28;;;;;;;5.89;79.49;99657.59;1730099;81;21030;-74
2022/04/25 05:23:42;;;;;;;15.60;11.08;;;;;;;5.88;79.52;99649.80;1718832;83;21010;-73
2022/04/25 05:26:08;;;;;;;14.23;10.28;;;;;;;5.86;79.58;99654.44;1718928;83;21062;-74
2022/04/25 05:28:34;;;;;;;19.48;11.43;;;;;;;5.86;79.63;99657.09;1731204;81;21066;-74
2022/04/25 05:31:01;;;;;;;15.78;11.05;;;;;;;5.85;79.70;99659.36;1742763;81;20964;-74
2022/04/25 05:33:27;;;;;;;18.30;11.85;;;;;;;5.85;79.74;99665.97;1733213;81;21320;-74
2022/04/25 05:35:53;;;;;;;17.98;11.75;;;;;;;5.84;79.80;99661.69;1717443;83;20979;-73
2022/04/25 05:38:19;;;;;;;15.40;10.55;;;;;;;5.84;79.85;99663.81;1717302;83;20973;-74
2022/04/25 05:40:46;;;;;;;16.40;10.50;;;;;;;5.86;79.90;99672.96;1719462;81;21922;-74
2022/04/25 05:43:12;;;;;;;14.63;9.68;;;;;;;5.84;79.94;99669.62;1729908;81;21009;-74
2022/04/25 05:45:38;;;;;;;18.90;9.88;;;;;;;5.86;79.99;99672.96;1757473;81;20917;-74
2022/04/25 05:51:58;;;;;;;16.07;10.30;;;;;;;5.87;80.03;99671.98;1733952;81;21057;-74
2022/04/25 05:53:18;;;;;;;15.30;9.58;;;;;;;5.87;80.15;99685.21;1718548;83;21801;-74
2022/04/25 05:55:44;;;;;;;18.45;10.93;;;;;;;5.91;80.19;99687.88;1721549;81;21025;-73
2022/04/25 05:58:10;;;;;;;16.48;10.23;;;;;;;5.94;80.21;99687.56;1718802;83;20974;-73
2022/04/25 06:00:36;;;;;;;18.82;11.30;;;;;;;5.96;80.24;99686.90;1718718;83;21023;-73
2022/04/25 06:03:02;;;;;;;15.13;9.75;;;;;;;5.99;80.29;99690.55;1718563;83;21026;-74
2022/04/25 06:05:28;;;;;;;20.20;10.55;;;;;;;6.00;80.32;99690.41;1722339;81;21193;-73
2022/04/25 06:07:54;;;;;;;15.18;10.15;;;;;;;6.00;80.36;99698.34;1718578;83;21030;-73
2022/04/25 06:10:22;;;;;;;20.12;12.40;;;;;;;6.01;80.37;99697.86;1718719;83;20903;-74
2022/04/25 06:12:50;;;;;;;18.67;11.80;;;;;;;6.03;80.43;99703.31;1743641;78;21463;-74
2022/04/25 06:15:17;;;;;;;16.02;10.38;;;;;;;6.05;80.45;99699.20;1775312;79;21053;-74
2022/04/25 06:17:43;;;;;;;18.48;11.70;;;;;;;6.08;80.49;99701.53;1759456;81;21513;-74
2022/04/25 06:20:10;;;;;;;16.57;11.55;;;;;;;6.12;80.50;99702.05;1759294;81;21455;-74
2022/04/25 06:22:37;;;;;;;20.05;11.05;;;;;;;6.13;80.54;99710.30;1734354;81;21026;-74
2022/04/25 06:25:05;;;;;;;20.72;11.95;;;;;;;6.16;80.58;99706.04;1719290;81;21570;-74
2022/04/25 06:27:31;;;;;;;16.87;10.45;;;;;;;6.16;80.60;99712.13;1718622;83;21102;-74
2022/04/25 06:29:57;;;;;;;20.20;12.10;;;;;;;6.14;80.62;99711.97;1718703;83;21058;-74
2022/04/25 06:32:24;;;;;;;29.37;14.73;;;;;;;6.14;80.64;99712.80;1739799;81;21010;-74
2022/04/25 06:34:50;;;;;;;26.10;13.13;;;;;;;6.17;80.67;99712.48;1759378;81;21062;-74
2022/04/25 06:37:16;;;;;;;37.33;15.23;;;;;;;6.19;80.67;99712.33;1759173;81;20860;-74
2022/04/25 06:39:42;;;;;;;29.45;14.65;;;;;;;6.19;80.69;99711.01;1759992;81;20968;-74
2022/04/25 06:42:13;;;;;;;31.48;13.85;;;;;;;6.19;80.73;99713.16;1742851;81;21925;-74
2022/04/25 06:44:37;;;;;;;40.33;16.62;;;;;;;6.18;80.75;99713.31;1718420;83;21102;-74
2022/04/25 06:47:04;;;;;;;40.43;15.70;;;;;;;6.19;80.76;99718.46;1718716;83;21641;-74
2022/04/25 06:49:30;;;;;;;30.70;14.03;;;;;;;6.23;80.79;99719.78;1718885;83;21011;-74
2022/04/25 06:51:59;;;;;;;26.60;13.03;;;;;;;6.28;80.82;99722.79;1730690;81;20918;-74
2022/04/25 06:54:26;;;;;;;21.30;10.48;;;;;;;6.28;80.83;99725.93;1759500;81;21143;-74
2022/04/25 06:56:54;;;;;;;19.92;11.68;;;;;;;6.30;80.86;99728.74;1759685;81;20967;-74
2022/04/25 06:59:20;;;;;;;21.20;10.93;;;;;;;6.28;80.86;99717.50;1759582;81;21038;-74
2022/04/25 07:01:49;;;;;;;24.52;15.20;;;;;;;6.27;80.92;99725.09;1756740;81;21078;-74
2022/04/25 07:04:16;;;;;;;20.30;10.75;;;;;;;6.30;80.92;99725.27;1758224;81;21014;-74
2022/04/25 07:06:43;;;;;;;24.47;13.62;;;;;;;6.30;80.94;99728.74;1759776;81;21151;-74
2022/04/25 07:09:15;;;;;;;40.95;25.25;;;;;;;6.29;80.96;99729.75;1759460;80;21514;-74
2022/04/25 07:11:45;;;;;;;25.82;13.38;;;;;;;6.32;80.99;99727.27;1752824;81;21066;-74
2022/04/25 07:14:18;;;;;;;21.02;11.83;;;;;;;6.34;81.01;99732.73;1727828;81;21035;-74
2022/04/25 07:16:45;;;;;;;20.70;10.75;;;;;;;6.38;81.01;99730.60;1729219;81;21021;-74
2022/04/25 07:19:12;;;;;;;18.55;9.03;;;;;;;6.39;81.03;99737.08;1729134;81;21159;-73
2022/04/25 07:29:51;;;;;;;15.43;10.63;;;;;;;6.45;81.11;99739.56;1763015;81;21009;-73
2022/04/25 07:32:18;;;;;;;17.98;9.83;;;;;;;6.53;81.11;99743.09;1741767;81;21070;-74
2022/04/25 07:34:47;;;;;;;17.20;10.25;;;;;;;6.56;81.12;99751.69;1734557;81;21120;-73
2022/04/25 07:37:15;;;;;;;17.23;11.38;;;;;;;6.55;81.12;99749.53;1737606;82;21715;-73
2022/04/25 07:39:42;;;;;;;19.20;11.12;;;;;;;6.54;81.14;99751.34;1727484;83;21537;-74
2022/04/25 07:42:09;;;;;;;20.52;10.05;;;;;;;6.57;81.15;99759.98;1727729;81;21070;-73
2022/04/25 07:44:36;;;;;;;15.08;9.08;;;;;;;6.61;81.14;99750.73;1765938;81;21043;-73
2022/04/25 07:47:02;;;;;;;14.70;9.68;;;;;;;6.66;81.17;99757.69;1753815;81;21014;-73
2022/04/25 07:49:28;;;;;;;15.38;8.90;;;;;;;6.67;81.16;99760.68;1727936;81;21029;-73
2022/04/25 07:51:55;;;;;;;14.90;10.68;;;;;;;6.68;81.19;99760.53;1740276;81;21068;-73
2022/04/25 07:54:22;;;;;;;16.05;9.28;;;;;;;6.68;81.19;99759.70;1745381;81;21047;-73
2022/04/25 07:56:49;;;;;;;20.90;10.88;;;;;;;6.70;81.20;99763.84;1746168;81;21672;-72
2022/04/25 07:59:15;;;;;;;17.02;9.85;;;;;;;6.74;81.21;99766.99;1744457;81;21018;-73
2022/04/25 08:01:41;;;;;;;15.20;9.35;;;;;;;6.70;81.21;99765.65;1728643;81;21038;-73
2022/04/25 08:04:07;;;;;;;14.53;10.43;;;;;;;6.74;81.21;99776.27;1722547;82;21018;-73
2022/04/25 08:06:33;;;;;;;12.95;10.05;;;;;;;6.76;81.22;99775.59;1730164;81;20883;-73
2022/04/25 08:09:02;;;;;;;17.57;10.28;;;;;;;6.81;81.23;99783.91;1726031;81;21150;-73
2022/04/25 08:11:27;;;;;;;14.55;8.90;;;;;;;6.81;81.23;99786.56;1731523;81;21034;-73
2022/04/25 08:19:18;;;;;;;14.83;9.83;;;;;;;6.90;81.21;99790.39;1658847;80;21586;-73
2022/04/25 08:21:44;;;;;;;17.95;10.25;;;;;;;6.93;81.22;99791.91;1743476;80;21174;-74
2022/04/25 08:24:13;;;;;;;13.95;10.10;;;;;;;6.97;81.24;99791.89;1744025;80;21625;-73
2022/04/25 08:26:40;;;;;;;51.28;28.62;;;;;;;6.99;81.23;99797.88;1743021;80;20996;-73
2022/04/25 08:29:06;;;;;;;22.10;12.65;;;;;;;6.98;81.21;99800.19;1744681;80;21016;-73
2022/04/25 08:31:33;;;;;;;25.25;16.67;;;;;;;6.99;81.24;99797.88;1743419;80;21012;-73
2022/04/25 08:34:00;;;;;;;20.97;12.05;;;;;;;6.98;81.22;99802.34;1742875;80;21418;-73
2022/04/25 08:36:26;;;;;;;26.12;14.45;;;;;;;7.06;81.24;99806.84;1743151;80;21071;-73
2022/04/25 08:38:52;;;;;;;17.92;9.20;;;;;;;7.15;81.21;99814.31;1752490;80;21047;-72
2022/04/25 08:41:22;;;;;;;9.63;7.20;;;;;;;7.17;81.21;99806.55;1751825;80;21163;-72
2022/04/25 08:43:51;;;;;;;11.35;7.72;;;;;;;7.22;81.25;99812.17;1743459;80;21034;-73
2022/04/25 08:46:17;;;;;;;16.80;7.78;;;;;;;7.26;81.20;99812.19;1742556;80;21091;-72
2022/04/25 08:48:43;;;;;;;20.80;13.95;;;;;;;7.33;81.21;99817.17;1709366;80;20999;-72
2022/04/25 08:51:09;;;;;;;21.68;10.45;;;;;;;7.39;81.20;99818.33;1743129;80;21465;-73
2022/04/25 08:53:37;;;;;;;24.87;12.23;;;;;;;7.49;81.18;99821.69;1749146;80;20885;-73
2022/04/25 08:56:04;;;;;;;23.25;13.70;;;;;;;7.53;81.18;99821.17;1745033;80;21409;-73
2022/04/25 08:58:31;;;;;;;16.32;8.93;;;;;;;7.57;81.18;99820.84;1745151;80;21764;-73
2022/04/25 09:01:00;;;;;;;16.37;10.18;;;;;;;7.60;81.15;99831.14;1712284;82;21023;-72
2022/04/25 09:03:26;;;;;;;16.80;10.82;;;;;;;7.60;81.14;99833.27;1747109;80;21034;-73
2022/04/25 09:05:52;;;;;;;15.25;9.18;;;;;;;7.66;81.13;99830.48;1745012;80;21019;-73
2022/04/25 09:08:18;;;;;;;11.53;6.78;;;;;;;7.71;81.10;99830.80;1687657;80;21677;-73
2022/04/25 09:10:45;;;;;;;14.43;8.23;;;;;;;7.64;81.07;99831.13;1744406;80;21850;-73
2022/04/25 09:13:11;;;;;;;12.25;7.12;;;;;;;7.61;81.06;99835.44;1762026;80;21017;-73
2022/04/25 09:15:37;;;;;;;11.33;7.20;;;;;;;7.67;81.02;99840.11;1726558;80;21099;-73
2022/04/25 09:18:03;;;;;;;13.15;7.58;;;;;;;7.67;80.99;99830.82;1727326;80;20898;-72
2022/04/25 09:20:30;;;;;;;11.28;7.55;;;;;;;7.72;80.90;99835.12;1714152;81;21058;-72
2022/04/25 09:22:56;;;;;;;21.97;11.78;;;;;;;7.77;80.88;99843.42;1731104;81;21786;-73
2022/04/25 09:25:22;;;;;;;12.13;7.95;;;;;;;7.88;80.83;99841.77;1743883;80;21060;-73
2022/04/25 09:27:51;;;;;;;11.63;7.50;;;;;;;7.99;80.75;99846.72;1776247;80;21030;-74
2022/04/25 09:30:21;;;;;;;10.80;6.72;;;;;;;8.10;80.71;99847.71;1723706;80;21088;-73
2022/04/25 09:32:50;;;;;;;;;;;;;;;8.19;80.68;99845.89;1745452;80;21720;-73
2022/04/25 09:35:28;;;;;;;17.25;10.00;;;;;;;8.30;80.60;99843.72;1747763;80;21924;-73
2022/04/25 09:37:56;;;;;;;17.00;9.03;;;;;;;8.40;80.55;99849.71;1732564;81;20988;-73
2022/04/25 09:40:24;;;;;;;21.10;10.38;;;;;;;8.51;80.50;99852.51;1731746;80;21004;-73
2022/04/25 09:43:13;;;;;;;13.45;9.28;;;;;;;8.49;80.38;99850.00;1732350;80;21622;-73
2022/04/25 09:45:42;;;;;;;21.50;9.53;;;;;;;8.60;80.35;99851.97;1739707;80;21047;-73
2022/04/25 09:48:15;;;;;;;12.50;7.50;;;;;;;8.68;80.25;99858.59;1740000;80;21181;-72
2022/04/25 09:51:01;;;;;;;10.70;6.05;;;;;;;8.75;80.14;99867.05;1731256;80;21024;-73
2022/04/25 09:53:47;;;;;;;9.38;5.80;;;;;;;8.75;80.04;99867.55;1733443;80;21027;-72
2022/04/25 09:56:18;;;;;;;9.65;5.90;;;;;;;8.69;79.92;99873.03;1730448;80;21072;-72
2022/04/25 09:58:47;;;;;;;11.35;6.83;;;;;;;8.74;79.80;99873.86;1731990;80;21063;-72
2022/04/25 10:01:14;;;;;;;10.70;6.33;;;;;;;8.81;79.73;99870.84;1732054;80;21507;-72
2022/04/25 10:03:41;;;;;;;8.73;6.05;;;;;;;8.84;79.62;99873.16;1732377;80;21043;-72
2022/04/25 10:06:07;;;;;;;18.62;10.35;;;;;;;8.80;79.50;99875.82;1731446;80;21019;-72
2022/04/25 10:08:35;;;;;;;14.73;9.13;;;;;;;8.80;79.40;99883.80;1731409;80;21031;-73
2022/04/25 10:11:06;;;;;;;13.30;8.23;;;;;;;8.80;79.31;99882.47;1736684;80;21069;-72
2022/04/25 10:13:32;;;;;;;11.20;6.75;;;;;;;8.77;79.21;99881.48;1730287;80;21075;-73
2022/04/25 10:15:58;;;;;;;14.13;7.40;;;;;;;8.71;79.07;99887.50;1714026;82;21118;-72
2022/04/25 10:18:30;;;;;;;17.00;8.20;;;;;;;8.66;78.99;99888.49;1694033;81;21124;-72
2022/04/25 10:20:56;;;;;;;11.03;7.55;;;;;;;8.73;78.94;99890.80;1712932;82;21095;-72
2022/04/25 10:23:22;;;;;;;10.13;6.53;;;;;;;8.79;78.83;99891.47;1702479;82;20991;-72
2022/04/25 10:25:53;;;;;;;15.88;8.73;;;;;;;8.78;78.86;99903.09;1702139;82;21656;-72
2022/04/25 10:28:41;;;;;;;15.88;9.60;;;;;;;8.71;78.66;99894.97;1701249;82;21032;-72
2022/04/25 10:31:23;;;;;;;11.97;7.30;;;;;;;8.70;78.61;99893.80;1701361;82;21110;-72
2022/04/25 10:33:54;;;;;;;13.70;8.15;;;;;;;8.69;78.53;99896.95;1705136;82;21067;-72
2022/04/25 10:36:42;;;;;;;13.40;8.03;;;;;;;8.71;78.46;99900.29;1706436;82;21034;-72
2022/04/25 10:39:27;;;;;;;14.10;8.28;;;;;;;8.80;78.38;99901.08;1700283;82;21205;-72
2022/04/25 10:44:49;;;;;;;14.05;7.95;;;;;;;8.80;78.22;99909.05;1714379;82;21476;-71
2022/04/25 10:47:20;;;;;;;13.90;8.63;;;;;;;8.83;78.13;99907.41;1705008;82;21079;-71
2022/04/25 10:49:50;;;;;;;15.38;8.70;;;;;;;8.90;78.08;99909.72;1715833;82;21098;-72
2022/04/25 10:55:30;;;;;;;18.05;10.10;;;;;;;9.13;77.95;99914.61;1710922;82;21790;-71
2022/04/25 10:58:08;;;;;;;10.98;7.03;;;;;;;9.33;77.93;99922.49;1711229;81;21089;-72
2022/04/25 11:00:45;;;;;;;10.48;7.55;;;;;;;9.45;77.82;99915.80;1703443;82;21012;-72
2022/04/25 11:03:15;;;;;;;12.07;7.60;;;;;;;9.47;77.72;99912.44;1722197;82;21694;-72
2022/04/25 11:05:45;;;;;;;15.18;8.95;;;;;;;9.54;77.64;99924.05;1719117;82;21789;-71
2022/04/25 11:08:27;;;;;;;8.90;7.30;;;;;;;9.49;77.53;99925.09;1717381;82;21047;-72
2022/04/25 11:11:00;;;;;;;12.23;7.40;;;;;;;9.52;77.44;99926.07;1714877;82;21039;-72
2022/04/25 11:13:31;;;;;;;15.15;7.30;;;;;;;9.52;77.29;99927.40;1717086;82;21523;-71
2022/04/25 11:16:01;;;;;;;11.10;7.97;;;;;;;9.54;77.18;99932.53;1701651;81;21102;-72
2022/04/25 11:18:41;;;;;;;;;;;;;;;9.48;77.09;99939.39;1722546;82;21646;-72
2022/04/25 11:21:18;;;;;;;13.93;8.60;;;;;;;9.43;76.98;99936.41;1728617;82;20478;-71
2022/04/25 11:23:48;;;;;;;10.13;8.05;;;;;;;9.37;76.85;99941.11;1723571;81;21046;-71
2022/04/25 11:26:29;;;;;;;15.15;8.13;;;;;;;9.27;76.71;99940.48;1721081;81;21026;-72
2022/04/25 11:29:08;;;;;;;20.17;9.80;;;;;;;9.21;76.65;99946.51;1729343;82;21146;-72
2022/04/25 11:31:32;;;;;;;13.35;9.60;;;;;;;9.21;76.58;99949.17;1725632;81;21166;-72
2022/04/25 11:34:03;;;;;;;19.98;11.30;;;;;;;9.29;76.49;99953.11;1704098;81;21005;-71
2022/04/25 11:36:32;;;;;;;15.03;10.20;;;;;;;9.37;76.44;99950.91;1731371;81;21065;-71
2022/04/25 11:41:44;;;;;;;14.75;9.58;;;;;;;9.51;76.32;99957.67;1730472;80;21134;-71
2022/04/25 11:44:10;;;;;;;11.40;7.95;;;;;;;9.56;76.19;99957.66;1737453;81;21498;-71
2022/04/25 11:46:37;;;;;;;15.45;8.93;;;;;;;9.60;76.13;99960.30;1714824;81;21693;-70
2022/04/25 11:49:05;;;;;;;16.70;9.58;;;;;;;9.61;76.08;99964.60;1725220;82;21097;-71
2022/04/25 11:51:37;;;;;;;25.15;11.10;;;;;;;9.66;76.02;99970.25;1703580;82;21485;-71
2022/04/25 11:54:06;;;;;;;14.28;9.63;;;;;;;9.73;75.97;99966.72;1700093;81;21034;-71
2022/04/25 11:56:39;;;;;;;18.07;11.20;;;;;;;9.72;75.87;99977.53;1701232;82;21510;-71
2022/04/25 11:59:14;;;;;;;41.50;20.92;;;;;;;9.73;75.81;99977.87;1711932;82;21062;-71
2022/04/25 12:01:47;;;;;;;17.05;9.08;;;;;;;9.73;75.76;99977.37;1692816;82;21010;-71
2022/04/25 12:04:19;;;;;;;14.33;6.95;;;;;;;9.74;75.65;99971.05;1701598;82;21142;-72
2022/04/25 12:06:56;;;;;;;13.10;8.30;;;;;;;9.76;75.50;99978.84;1701840;82;21024;-71